ソルトレイクシティ の空港の天気 - METARとTAF

ソルト・レーク・シティ国際空港 ( KSLC / SLC ) - アメリカ ユタ州ソルトレイクシティ
飛行場実況気象(Metar)
観測時間10/17 20:54 MDT (10/18 02:54 UTC)
風向・風速東南東 6m/s
視程10km以上
天気現象
少しの雲 雲底高度 2130m
全天の8割程度の雲 雲底高度 3660m
気温13.3℃
湿度45%
気圧1021.7hPa
METARKSLC 180254Z 12011KT 10SM FEW070 BKN120 13/02 A3023 RMK AO2 SLP217 T01330017 53006
過去の天気等 Google飛行場航空写真 Wunderground天気予報

過去48時間のMETAR

飛行場予報(TAF)
発表時間: 10/17 21:11 MDT (10/18 03:11 UTC)
予報対象時間: 17日21時 MDT ~ 19日0時 MDT
風向・風速南東 5m/s
視程10km以上
全天の4割程度の雲 雲底高度 2130m
全天の8割程度の雲 雲底高度 3050m
18日14時 MDT から
風向・風速北西 4m/s
視程10km以上
少しの雲 雲底高度 2440m
全天の4割程度の雲 雲底高度 3660m
18日21時 MDT から
風向・風速南南東 3m/s
視程10km以上
少しの雲 雲底高度 3050m
KSLC 180311Z 1803/1906 14009KT P6SM SCT070 BKN100
FM182000 32007KT P6SM FEW080 SCT120
FM190300 15005KT P6SM FEW100